PWSweather.com
Personal Weather Stations
Station Observations
KCAOCEAN4
Jeffries Ranch, Oceanside, CA 92057

Jeffries RanchOceanside, CA 92057

Lat: 33.2463208, Lon: -117.25335080000002

Elevation: 207

Station Type: Davis Vantage Vue

jeffriesranchweather.com

High Low Average
Temperature 59.5°F15.3°C 35.1°F1.7°C 45.8°F7.7°C
Dew Point 44.8°F7.1°C 32.9°F0.5°C 38.0°F3.3°C
Winds 6.0 mph 9.7 kmh Calm Calm 2.0 mph SE3.2 kmh SE
Wind Gusts 13.0 mph20.9 kmh 0.9 mph1.4 kmh 6.0 mph9.7 kmh
Humidity 92% 54% 76%
Pressure 30.21 in1023.0 mb 30.07 in1018.3 mb -
Precipitation 0.00 in0.0 mm - -
Hour Temp Dew Point Humidity Winds Wind Gusts Pressure Precip Precip Rate Daily Precip Total
12:01 AM 38.3°F3.5°C 35.4°F1.9°C 89% 0.9 mph ESE1.4 kmh ESE 2.9 mph4.7 kmh 30.07 in1018.3 mb 0.00 in0.0 mm 0.00 in0.0 mm 0.00 in0.0 mm
12:11 AM 38.1°F3.4°C 35.2°F1.8°C 89% Calm Calm 0.9 mph1.4 kmh 30.07 in1018.3 mb 0.00 in0.0 mm 0.00 in0.0 mm 0.00 in0.0 mm
12:21 AM 37.8°F3.2°C 35.1°F1.7°C 90% Calm Calm 2.0 mph3.2 kmh 30.08 in1018.6 mb 0.00 in0.0 mm 0.00 in0.0 mm 0.00 in0.0 mm
12:31 AM 37.9°F3.3°C 35.2°F1.8°C 90% Calm Calm 2.0 mph3.2 kmh 30.08 in1018.6 mb 0.00 in0.0 mm 0.00 in0.0 mm 0.00 in0.0 mm
12:41 AM 37.4°F3.0°C 34.7°F1.5°C 90% Calm Calm 0.9 mph1.4 kmh 30.09 in1019.0 mb 0.00 in0.0 mm 0.00 in0.0 mm 0.00 in0.0 mm
12:51 AM 37.4°F3.0°C 34.7°F1.5°C 90% 0.9 mph E1.4 kmh E 2.0 mph3.2 kmh 30.09 in1019.0 mb 0.00 in0.0 mm 0.00 in0.0 mm 0.00 in0.0 mm
01:01 AM 37.0°F2.8°C 34.7°F1.5°C 91% Calm Calm 0.9 mph1.4 kmh 30.09 in1019.0 mb 0.00 in0.0 mm 0.00 in0.0 mm 0.00 in0.0 mm
01:11 AM 36.9°F2.7°C 34.5°F1.4°C 91% 0.9 mph E1.4 kmh E 2.0 mph3.2 kmh 30.09 in1019.0 mb 0.00 in0.0 mm 0.00 in0.0 mm 0.00 in0.0 mm
01:21 AM 36.9°F2.7°C 34.5°F1.4°C 91% Calm Calm 2.0 mph3.2 kmh 30.09 in1019.0 mb 0.00 in0.0 mm 0.00 in0.0 mm 0.00 in0.0 mm
01:31 AM 36.7°F2.6°C 34.3°F1.3°C 91% Calm Calm 2.0 mph3.2 kmh 30.09 in1019.0 mb 0.00 in0.0 mm 0.00 in0.0 mm 0.00 in0.0 mm
01:41 AM 36.3°F2.4°C 34.0°F1.1°C 91% Calm Calm 2.0 mph3.2 kmh 30.09 in1019.0 mb 0.00 in0.0 mm 0.00 in0.0 mm 0.00 in0.0 mm
01:51 AM 36.3°F2.4°C 34.0°F1.1°C 91% 2.0 mph E3.2 kmh E 4.0 mph6.4 kmh 30.09 in1019.0 mb 0.00 in0.0 mm 0.00 in0.0 mm 0.00 in0.0 mm
02:01 AM 36.1°F2.3°C 33.8°F1.0°C 91% 2.0 mph ENE3.2 kmh ENE 4.0 mph6.4 kmh 30.09 in1019.0 mb 0.00 in0.0 mm 0.00 in0.0 mm 0.00 in0.0 mm
02:11 AM 36.0°F2.2°C 33.6°F0.9°C 91% 0.9 mph ENE1.4 kmh ENE 4.0 mph6.4 kmh 30.10 in1019.3 mb 0.00 in0.0 mm 0.00 in0.0 mm 0.00 in0.0 mm
02:21 AM 35.8°F2.1°C 33.4°F0.8°C 91% 0.9 mph ENE1.4 kmh ENE 4.0 mph6.4 kmh 30.10 in1019.3 mb 0.00 in0.0 mm 0.00 in0.0 mm 0.00 in0.0 mm
02:31 AM 35.8°F2.1°C 33.6°F0.9°C 92% 0.9 mph ESE1.4 kmh ESE 4.0 mph6.4 kmh 30.10 in1019.3 mb 0.00 in0.0 mm 0.00 in0.0 mm 0.00 in0.0 mm
02:41 AM 35.8°F2.1°C 33.6°F0.9°C 92% 0.9 mph NE1.4 kmh NE 4.0 mph6.4 kmh 30.10 in1019.3 mb 0.00 in0.0 mm 0.00 in0.0 mm 0.00 in0.0 mm
02:51 AM 35.8°F2.1°C 33.6°F0.9°C 92% 0.9 mph ENE1.4 kmh ENE 4.0 mph6.4 kmh 30.10 in1019.3 mb 0.00 in0.0 mm 0.00 in0.0 mm 0.00 in0.0 mm
03:01 AM 35.4°F1.9°C 33.3°F0.7°C 92% 0.9 mph ENE1.4 kmh ENE 2.9 mph4.7 kmh 30.10 in1019.3 mb 0.00 in0.0 mm 0.00 in0.0 mm 0.00 in0.0 mm
03:11 AM 35.4°F1.9°C 33.3°F0.7°C 92% 2.9 mph E4.7 kmh E 5.0 mph8.0 kmh 30.11 in1019.6 mb 0.00 in0.0 mm 0.00 in0.0 mm 0.00 in0.0 mm
03:21 AM 35.2°F1.8°C 33.1°F0.6°C 92% 2.0 mph ENE3.2 kmh ENE 6.0 mph9.7 kmh 30.11 in1019.6 mb 0.00 in0.0 mm 0.00 in0.0 mm 0.00 in0.0 mm
03:31 AM 35.4°F1.9°C 33.3°F0.7°C 92% 2.0 mph ENE3.2 kmh ENE 6.0 mph9.7 kmh 30.11 in1019.6 mb 0.00 in0.0 mm 0.00 in0.0 mm 0.00 in0.0 mm
03:41 AM 35.4°F1.9°C 33.3°F0.7°C 92% 2.9 mph E4.7 kmh E 6.0 mph9.7 kmh 30.11 in1019.6 mb 0.00 in0.0 mm 0.00 in0.0 mm 0.00 in0.0 mm
03:51 AM 35.4°F1.9°C 33.3°F0.7°C 92% 2.9 mph ENE4.7 kmh ENE 4.9 mph7.9 kmh 30.11 in1019.6 mb 0.00 in0.0 mm 0.00 in0.0 mm 0.00 in0.0 mm
04:01 AM 35.2°F1.8°C 33.1°F0.6°C 92% 2.0 mph ENE3.2 kmh ENE 4.9 mph7.9 kmh 30.11 in1019.6 mb 0.00 in0.0 mm 0.00 in0.0 mm 0.00 in0.0 mm
04:11 AM 35.4°F1.9°C 33.3°F0.7°C 92% 2.0 mph ENE3.2 kmh ENE 4.9 mph7.9 kmh 30.12 in1020.0 mb 0.00 in0.0 mm 0.00 in0.0 mm 0.00 in0.0 mm
04:21 AM 35.4°F1.9°C 33.3°F0.7°C 92% 2.0 mph ENE3.2 kmh ENE 4.0 mph6.4 kmh 30.12 in1020.0 mb 0.00 in0.0 mm 0.00 in0.0 mm 0.00 in0.0 mm
04:31 AM 35.4°F1.9°C 33.3°F0.7°C 92% 2.0 mph NE3.2 kmh NE 4.0 mph6.4 kmh 30.12 in1020.0 mb 0.00 in0.0 mm 0.00 in0.0 mm 0.00 in0.0 mm
04:41 AM 35.4°F1.9°C 33.3°F0.7°C 92% 2.0 mph ENE3.2 kmh ENE 6.0 mph9.7 kmh 30.13 in1020.3 mb 0.00 in0.0 mm 0.00 in0.0 mm 0.00 in0.0 mm
04:51 AM 35.4°F1.9°C 33.3°F0.7°C 92% 2.0 mph ENE3.2 kmh ENE 7.0 mph11.3 kmh 30.13 in1020.3 mb 0.00 in0.0 mm 0.00 in0.0 mm 0.00 in0.0 mm
05:01 AM 35.4°F1.9°C 33.3°F0.7°C 92% 2.9 mph ENE4.7 kmh ENE 7.0 mph11.3 kmh 30.13 in1020.3 mb 0.00 in0.0 mm 0.00 in0.0 mm 0.00 in0.0 mm
05:11 AM 35.2°F1.8°C 33.1°F0.6°C 92% 2.9 mph ESE4.7 kmh ESE 6.9 mph11.1 kmh 30.13 in1020.3 mb 0.00 in0.0 mm 0.00 in0.0 mm 0.00 in0.0 mm
05:21 AM 35.2°F1.8°C 33.1°F0.6°C 92% 2.9 mph ENE4.7 kmh ENE 6.0 mph9.7 kmh 30.14 in1020.7 mb 0.00 in0.0 mm 0.00 in0.0 mm 0.00 in0.0 mm
05:31 AM 35.1°F1.7°C 32.9°F0.5°C 92% 2.0 mph E3.2 kmh E 6.0 mph9.7 kmh 30.14 in1020.7 mb 0.00 in0.0 mm 0.00 in0.0 mm 0.00 in0.0 mm
05:41 AM 35.1°F1.7°C 32.9°F0.5°C 92% 2.0 mph ENE3.2 kmh ENE 4.9 mph7.9 kmh 30.14 in1020.7 mb 0.00 in0.0 mm 0.00 in0.0 mm 0.00 in0.0 mm
05:51 AM 35.1°F1.7°C 32.9°F0.5°C 92% 2.0 mph E3.2 kmh E 4.9 mph7.9 kmh 30.15 in1021.0 mb 0.00 in0.0 mm 0.00 in0.0 mm 0.00 in0.0 mm
06:01 AM 35.1°F1.7°C 32.9°F0.5°C 92% 0.9 mph E1.4 kmh E 4.0 mph6.4 kmh 30.15 in1021.0 mb 0.00 in0.0 mm 0.00 in0.0 mm 0.00 in0.0 mm
06:11 AM 35.1°F1.7°C 32.9°F0.5°C 92% 0.9 mph ENE1.4 kmh ENE 2.9 mph4.7 kmh 30.15 in1021.0 mb 0.00 in0.0 mm 0.00 in0.0 mm 0.00 in0.0 mm
06:21 AM 35.1°F1.7°C 32.9°F0.5°C 92% 2.0 mph NE3.2 kmh NE 6.0 mph9.7 kmh 30.16 in1021.3 mb 0.00 in0.0 mm 0.00 in0.0 mm 0.00 in0.0 mm
06:31 AM 35.1°F1.7°C 32.9°F0.5°C 92% 2.0 mph ENE3.2 kmh ENE 4.9 mph7.9 kmh 30.16 in1021.3 mb 0.00 in0.0 mm 0.00 in0.0 mm 0.00 in0.0 mm
06:41 AM 35.2°F1.8°C 33.1°F0.6°C 92% 2.0 mph ENE3.2 kmh ENE 4.9 mph7.9 kmh 30.16 in1021.3 mb 0.00 in0.0 mm 0.00 in0.0 mm 0.00 in0.0 mm
06:51 AM 35.8°F2.1°C 33.4°F0.8°C 91% 2.0 mph ENE3.2 kmh ENE 7.0 mph11.3 kmh 30.16 in1021.3 mb 0.00 in0.0 mm 0.00 in0.0 mm 0.00 in0.0 mm
07:01 AM 36.3°F2.4°C 34.0°F1.1°C 91% 2.0 mph NE3.2 kmh NE 6.0 mph9.7 kmh 30.17 in1021.7 mb 0.00 in0.0 mm 0.00 in0.0 mm 0.00 in0.0 mm
07:11 AM 36.9°F2.7°C 34.2°F1.2°C 90% 2.0 mph NE3.2 kmh NE 4.9 mph7.9 kmh 30.17 in1021.7 mb 0.00 in0.0 mm 0.00 in0.0 mm 0.00 in0.0 mm
07:21 AM 37.4°F3.0°C 34.7°F1.5°C 90% 2.0 mph E3.2 kmh E 4.0 mph6.4 kmh 30.18 in1022.0 mb 0.00 in0.0 mm 0.00 in0.0 mm 0.00 in0.0 mm
07:31 AM 38.1°F3.4°C 35.2°F1.8°C 89% 2.0 mph ENE3.2 kmh ENE 5.0 mph8.0 kmh 30.18 in1022.0 mb 0.00 in0.0 mm 0.00 in0.0 mm 0.00 in0.0 mm
07:41 AM 39.0°F3.9°C 35.8°F2.1°C 88% 2.9 mph N4.7 kmh N 7.0 mph11.3 kmh 30.19 in1022.4 mb 0.00 in0.0 mm 0.00 in0.0 mm 0.00 in0.0 mm
07:51 AM 40.3°F4.6°C 37.0°F2.8°C 88% 2.0 mph ENE3.2 kmh ENE 4.9 mph7.9 kmh 30.19 in1022.4 mb 0.00 in0.0 mm 0.00 in0.0 mm 0.00 in0.0 mm
08:01 AM 41.7°F5.4°C 37.6°F3.1°C 85% 0.9 mph ENE1.4 kmh ENE 4.9 mph7.9 kmh 30.19 in1022.4 mb 0.00 in0.0 mm 0.00 in0.0 mm 0.00 in0.0 mm
08:11 AM 42.6°F5.9°C 37.8°F3.2°C 83% 2.9 mph NNE4.7 kmh NNE 6.0 mph9.7 kmh 30.19 in1022.4 mb 0.00 in0.0 mm 0.00 in0.0 mm 0.00 in0.0 mm
08:21 AM 43.7°F6.5°C 38.3°F3.5°C 81% 2.9 mph NE4.7 kmh NE 6.0 mph9.7 kmh 30.20 in1022.7 mb 0.00 in0.0 mm 0.00 in0.0 mm 0.00 in0.0 mm
08:31 AM 45.1°F7.3°C 39.4°F4.1°C 80% 2.0 mph E3.2 kmh E 4.9 mph7.9 kmh 30.20 in1022.7 mb 0.00 in0.0 mm 0.00 in0.0 mm 0.00 in0.0 mm
08:41 AM 46.4°F8.0°C 39.6°F4.2°C 77% 0.9 mph ENE1.4 kmh ENE 4.0 mph6.4 kmh 30.20 in1022.7 mb 0.00 in0.0 mm 0.00 in0.0 mm 0.00 in0.0 mm
08:51 AM 47.3°F8.5°C 40.5°F4.7°C 77% 2.0 mph E3.2 kmh E 5.0 mph8.0 kmh 30.20 in1022.7 mb 0.00 in0.0 mm 0.00 in0.0 mm 0.00 in0.0 mm
09:01 AM 48.4°F9.1°C 40.5°F4.7°C 74% 2.0 mph NE3.2 kmh NE 4.0 mph6.4 kmh 30.20 in1022.7 mb 0.00 in0.0 mm 0.00 in0.0 mm 0.00 in0.0 mm
09:11 AM 49.6°F9.8°C 41.4°F5.2°C 73% 2.0 mph NE3.2 kmh NE 4.0 mph6.4 kmh 30.21 in1023.0 mb 0.00 in0.0 mm 0.00 in0.0 mm 0.00 in0.0 mm
09:21 AM 51.1°F10.6°C 42.1°F5.6°C 71% 0.9 mph NE1.4 kmh NE 4.0 mph6.4 kmh 30.21 in1023.0 mb 0.00 in0.0 mm 0.00 in0.0 mm 0.00 in0.0 mm
09:31 AM 52.0°F11.1°C 42.1°F5.6°C 69% Calm Calm 2.9 mph4.7 kmh 30.21 in1023.0 mb 0.00 in0.0 mm 0.00 in0.0 mm 0.00 in0.0 mm
09:41 AM 52.9°F11.6°C 41.9°F5.5°C 66% 0.9 mph N1.4 kmh N 2.9 mph4.7 kmh 30.21 in1023.0 mb 0.00 in0.0 mm 0.00 in0.0 mm 0.00 in0.0 mm
09:51 AM 54.9°F12.7°C 42.4°F5.8°C 63% Calm Calm 0.9 mph1.4 kmh 30.21 in1023.0 mb 0.00 in0.0 mm 0.00 in0.0 mm 0.00 in0.0 mm
10:01 AM 55.6°F13.1°C 42.3°F5.7°C 61% Calm Calm 2.0 mph3.2 kmh 30.21 in1023.0 mb 0.00 in0.0 mm 0.00 in0.0 mm 0.00 in0.0 mm
10:11 AM 55.6°F13.1°C 41.5°F5.3°C 59% 0.9 mph N1.4 kmh N 3.0 mph4.8 kmh 30.21 in1023.0 mb 0.00 in0.0 mm 0.00 in0.0 mm 0.00 in0.0 mm
10:21 AM 56.7°F13.7°C 42.4°F5.8°C 59% Calm Calm 0.9 mph1.4 kmh 30.21 in1023.0 mb 0.00 in0.0 mm 0.00 in0.0 mm 0.00 in0.0 mm
10:31 AM 57.0°F13.9°C 42.4°F5.8°C 58% 0.9 mph NW1.4 kmh NW 5.0 mph8.0 kmh 30.21 in1023.0 mb 0.00 in0.0 mm 0.00 in0.0 mm 0.00 in0.0 mm
10:41 AM 56.8°F13.8°C 42.3°F5.7°C 58% 2.9 mph W4.7 kmh W 6.9 mph11.1 kmh 30.21 in1023.0 mb 0.00 in0.0 mm 0.00 in0.0 mm 0.00 in0.0 mm
10:51 AM 56.7°F13.7°C 41.5°F5.3°C 57% 2.0 mph S3.2 kmh S 6.0 mph9.7 kmh 30.21 in1023.0 mb 0.00 in0.0 mm 0.00 in0.0 mm 0.00 in0.0 mm
11:01 AM 57.0°F13.9°C 41.0°F5.0°C 55% 2.0 mph NW3.2 kmh NW 6.0 mph9.7 kmh 30.21 in1023.0 mb 0.00 in0.0 mm 0.00 in0.0 mm 0.00 in0.0 mm
11:11 AM 56.7°F13.7°C 40.6°F4.8°C 55% 2.0 mph W3.2 kmh W 6.0 mph9.7 kmh 30.21 in1023.0 mb 0.00 in0.0 mm 0.00 in0.0 mm 0.00 in0.0 mm
11:21 AM 57.2°F14.0°C 40.6°F4.8°C 54% 2.9 mph NW4.7 kmh NW 8.9 mph14.3 kmh 30.21 in1023.0 mb 0.00 in0.0 mm 0.00 in0.0 mm 0.00 in0.0 mm
11:31 AM 57.0°F13.9°C 41.9°F5.5°C 57% 4.0 mph W6.4 kmh W 10.1 mph16.3 kmh 30.21 in1023.0 mb 0.00 in0.0 mm 0.00 in0.0 mm 0.00 in0.0 mm
11:41 AM 57.0°F13.9°C 42.8°F6.0°C 59% 6.0 mph W9.7 kmh W 10.1 mph16.3 kmh 30.21 in1023.0 mb 0.00 in0.0 mm 0.00 in0.0 mm 0.00 in0.0 mm
11:51 AM 56.7°F13.7°C 42.4°F5.8°C 59% 4.0 mph WNW6.4 kmh WNW 8.0 mph12.9 kmh 30.21 in1023.0 mb 0.00 in0.0 mm 0.00 in0.0 mm 0.00 in0.0 mm
12:01 PM 56.7°F13.7°C 42.4°F5.8°C 59% 4.0 mph S6.4 kmh S 8.1 mph13.0 kmh 30.20 in1022.7 mb 0.00 in0.0 mm 0.00 in0.0 mm 0.00 in0.0 mm
12:11 PM 57.4°F14.1°C 42.8°F6.0°C 58% 4.9 mph W7.9 kmh W 10.1 mph16.3 kmh 30.20 in1022.7 mb 0.00 in0.0 mm 0.00 in0.0 mm 0.00 in0.0 mm
12:21 PM 58.5°F14.7°C 43.3°F6.3°C 57% 4.0 mph W6.4 kmh W 8.9 mph14.3 kmh 30.20 in1022.7 mb 0.00 in0.0 mm 0.00 in0.0 mm 0.00 in0.0 mm
12:31 PM 58.6°F14.8°C 43.0°F6.1°C 56% 4.0 mph S6.4 kmh S 10.1 mph16.3 kmh 30.19 in1022.4 mb 0.00 in0.0 mm 0.00 in0.0 mm 0.00 in0.0 mm
12:41 PM 57.6°F14.2°C 42.4°F5.8°C 57% 4.9 mph NW7.9 kmh NW 10.1 mph16.3 kmh 30.19 in1022.4 mb 0.00 in0.0 mm 0.00 in0.0 mm 0.00 in0.0 mm
12:51 PM 58.6°F14.8°C 43.0°F6.1°C 56% 4.9 mph W7.9 kmh W 12.1 mph19.5 kmh 30.19 in1022.4 mb 0.00 in0.0 mm 0.00 in0.0 mm 0.00 in0.0 mm
01:01 PM 58.3°F14.6°C 42.3°F5.7°C 55% 4.9 mph W7.9 kmh W 11.0 mph17.7 kmh 30.18 in1022.0 mb 0.00 in0.0 mm 0.00 in0.0 mm 0.00 in0.0 mm
01:11 PM 58.3°F14.6°C 43.2°F6.2°C 57% 4.0 mph WSW6.4 kmh WSW 10.1 mph16.3 kmh 30.18 in1022.0 mb 0.00 in0.0 mm 0.00 in0.0 mm 0.00 in0.0 mm
01:21 PM 59.5°F15.3°C 43.9°F6.6°C 56% 2.0 mph S3.2 kmh S 9.0 mph14.5 kmh 30.17 in1021.7 mb 0.00 in0.0 mm 0.00 in0.0 mm 0.00 in0.0 mm
01:31 PM 58.5°F14.7°C 42.8°F6.0°C 56% 4.9 mph W7.9 kmh W 11.0 mph17.7 kmh 30.17 in1021.7 mb 0.00 in0.0 mm 0.00 in0.0 mm 0.00 in0.0 mm
01:41 PM 58.5°F14.7°C 42.8°F6.0°C 56% 4.9 mph WSW7.9 kmh WSW 10.1 mph16.3 kmh 30.17 in1021.7 mb 0.00 in0.0 mm 0.00 in0.0 mm 0.00 in0.0 mm
01:51 PM 58.5°F14.7°C 43.7°F6.5°C 58% 4.9 mph WSW7.9 kmh WSW 13.0 mph20.9 kmh 30.17 in1021.7 mb 0.00 in0.0 mm 0.00 in0.0 mm 0.00 in0.0 mm
02:01 PM 58.6°F14.8°C 44.4°F6.9°C 59% 4.0 mph W6.4 kmh W 11.0 mph17.7 kmh 30.16 in1021.3 mb 0.00 in0.0 mm 0.00 in0.0 mm 0.00 in0.0 mm
02:11 PM 59.2°F15.1°C 43.9°F6.6°C 57% 4.9 mph SSE7.9 kmh SSE 11.0 mph17.7 kmh 30.16 in1021.3 mb 0.00 in0.0 mm 0.00 in0.0 mm 0.00 in0.0 mm
02:21 PM 59.0°F15.0°C 44.2°F6.8°C 58% 4.0 mph WSW6.4 kmh WSW 11.0 mph17.7 kmh 30.16 in1021.3 mb 0.00 in0.0 mm 0.00 in0.0 mm 0.00 in0.0 mm
02:31 PM 58.8°F14.9°C 43.7°F6.5°C 57% 4.9 mph W7.9 kmh W 10.1 mph16.3 kmh 30.16 in1021.3 mb 0.00 in0.0 mm 0.00 in0.0 mm 0.00 in0.0 mm
02:41 PM 58.5°F14.7°C 42.4°F5.8°C 55% 6.0 mph W9.7 kmh W 11.0 mph17.7 kmh 30.17 in1021.7 mb 0.00 in0.0 mm 0.00 in0.0 mm 0.00 in0.0 mm
02:51 PM 58.3°F14.6°C 42.6°F5.9°C 56% 6.0 mph W9.7 kmh W 13.0 mph20.9 kmh 30.17 in1021.7 mb 0.00 in0.0 mm 0.00 in0.0 mm 0.00 in0.0 mm
03:01 PM 58.1°F14.5°C 42.1°F5.6°C 55% 4.9 mph NNW7.9 kmh NNW 11.0 mph17.7 kmh 30.16 in1021.3 mb 0.00 in0.0 mm 0.00 in0.0 mm 0.00 in0.0 mm
03:11 PM 58.1°F14.5°C 44.2°F6.8°C 60% 4.9 mph SSW7.9 kmh SSW 11.0 mph17.7 kmh 30.16 in1021.3 mb 0.00 in0.0 mm 0.00 in0.0 mm 0.00 in0.0 mm
03:21 PM 58.6°F14.8°C 44.4°F6.9°C 59% 4.0 mph W6.4 kmh W 10.1 mph16.3 kmh 30.16 in1021.3 mb 0.00 in0.0 mm 0.00 in0.0 mm 0.00 in0.0 mm
03:31 PM 58.3°F14.6°C 42.6°F5.9°C 56% 4.9 mph WNW7.9 kmh WNW 11.0 mph17.7 kmh 30.16 in1021.3 mb 0.00 in0.0 mm 0.00 in0.0 mm 0.00 in0.0 mm
03:41 PM 58.1°F14.5°C 44.8°F7.1°C 61% 4.9 mph W7.9 kmh W 10.1 mph16.3 kmh 30.16 in1021.3 mb 0.00 in0.0 mm 0.00 in0.0 mm 0.00 in0.0 mm
03:51 PM 57.9°F14.4°C 44.6°F7.0°C 61% 4.9 mph WSW7.9 kmh WSW 13.0 mph20.9 kmh 30.16 in1021.3 mb 0.00 in0.0 mm 0.00 in0.0 mm 0.00 in0.0 mm
04:01 PM 57.4°F14.1°C 45.0°F7.2°C 63% 4.9 mph W7.9 kmh W 11.0 mph17.7 kmh 30.16 in1021.3 mb 0.00 in0.0 mm 0.00 in0.0 mm 0.00 in0.0 mm
04:11 PM 57.4°F14.1°C 45.7°F7.6°C 65% 4.9 mph WSW7.9 kmh WSW 12.1 mph19.5 kmh 30.16 in1021.3 mb 0.00 in0.0 mm 0.00 in0.0 mm 0.00 in0.0 mm
04:21 PM 57.2°F14.0°C 45.5°F7.5°C 65% 4.0 mph WNW6.4 kmh WNW 8.9 mph14.3 kmh 30.16 in1021.3 mb 0.00 in0.0 mm 0.00 in0.0 mm 0.00 in0.0 mm
04:31 PM 57.6°F14.2°C 45.9°F7.7°C 65% 4.0 mph WSW6.4 kmh WSW 10.1 mph16.3 kmh 30.16 in1021.3 mb 0.00 in0.0 mm 0.00 in0.0 mm 0.00 in0.0 mm
04:41 PM 57.4°F14.1°C 44.4°F6.9°C 62% 4.0 mph WSW6.4 kmh WSW 10.1 mph16.3 kmh 30.16 in1021.3 mb 0.00 in0.0 mm 0.00 in0.0 mm 0.00 in0.0 mm
04:51 PM 56.8°F13.8°C 43.9°F6.6°C 62% 4.0 mph WNW6.4 kmh WNW 10.1 mph16.3 kmh 30.17 in1021.7 mb 0.00 in0.0 mm 0.00 in0.0 mm 0.00 in0.0 mm
05:01 PM 56.5°F13.6°C 43.2°F6.2°C 61% 4.0 mph NW6.4 kmh NW 10.1 mph16.3 kmh 30.17 in1021.7 mb 0.00 in0.0 mm 0.00 in0.0 mm 0.00 in0.0 mm
05:11 PM 55.9°F13.3°C 43.5°F6.4°C 63% 6.0 mph WNW9.7 kmh WNW 10.1 mph16.3 kmh 30.17 in1021.7 mb 0.00 in0.0 mm 0.00 in0.0 mm 0.00 in0.0 mm
05:21 PM 55.8°F13.2°C 43.7°F6.5°C 64% 4.9 mph WSW7.9 kmh WSW 8.9 mph14.3 kmh 30.17 in1021.7 mb 0.00 in0.0 mm 0.00 in0.0 mm 0.00 in0.0 mm
05:31 PM 55.2°F12.9°C 43.7°F6.5°C 65% 2.9 mph WSW4.7 kmh WSW 6.9 mph11.1 kmh 30.17 in1021.7 mb 0.00 in0.0 mm 0.00 in0.0 mm 0.00 in0.0 mm
05:41 PM 54.3°F12.4°C 43.2°F6.2°C 66% 2.0 mph W3.2 kmh W 6.9 mph11.1 kmh 30.18 in1022.0 mb 0.00 in0.0 mm 0.00 in0.0 mm 0.00 in0.0 mm
05:51 PM 53.8°F12.1°C 43.5°F6.4°C 68% 0.9 mph SW1.4 kmh SW 6.0 mph9.7 kmh 30.18 in1022.0 mb 0.00 in0.0 mm 0.00 in0.0 mm 0.00 in0.0 mm
06:01 PM 53.2°F11.8°C 43.3°F6.3°C 69% Calm Calm 2.0 mph3.2 kmh 30.18 in1022.0 mb 0.00 in0.0 mm 0.00 in0.0 mm 0.00 in0.0 mm
06:11 PM 52.5°F11.4°C 43.0°F6.1°C 70% Calm Calm 0.9 mph1.4 kmh 30.18 in1022.0 mb 0.00 in0.0 mm 0.00 in0.0 mm 0.00 in0.0 mm
06:21 PM 52.0°F11.1°C 42.8°F6.0°C 71% Calm Calm -- 30.18 in1022.0 mb 0.00 in0.0 mm 0.00 in0.0 mm 0.00 in0.0 mm
06:31 PM 51.4°F10.8°C 42.8°F6.0°C 72% Calm Calm -- 30.19 in1022.4 mb 0.00 in0.0 mm 0.00 in0.0 mm 0.00 in0.0 mm
06:41 PM 50.5°F10.3°C 43.0°F6.1°C 75% Calm Calm 1.0 mph1.6 kmh 30.19 in1022.4 mb 0.00 in0.0 mm 0.00 in0.0 mm 0.00 in0.0 mm
06:51 PM 49.6°F9.8°C 42.4°F5.8°C 76% Calm Calm 0.9 mph1.4 kmh 30.19 in1022.4 mb 0.00 in0.0 mm 0.00 in0.0 mm 0.00 in0.0 mm
07:01 PM 49.1°F9.5°C 42.3°F5.7°C 77% Calm Calm -- 30.19 in1022.4 mb 0.00 in0.0 mm 0.00 in0.0 mm 0.00 in0.0 mm
07:11 PM 48.6°F9.2°C 42.1°F5.6°C 78% Calm Calm -- 30.19 in1022.4 mb 0.00 in0.0 mm 0.00 in0.0 mm 0.00 in0.0 mm
07:21 PM 48.0°F8.9°C 42.1°F5.6°C 80% Calm Calm 1.0 mph1.6 kmh 30.19 in1022.4 mb 0.00 in0.0 mm 0.00 in0.0 mm 0.00 in0.0 mm
07:31 PM 47.7°F8.7°C 42.1°F5.6°C 81% Calm Calm 2.0 mph3.2 kmh 30.19 in1022.4 mb 0.00 in0.0 mm 0.00 in0.0 mm 0.00 in0.0 mm
07:41 PM 47.5°F8.6°C 41.9°F5.5°C 81% 0.9 mph ESE1.4 kmh ESE 2.0 mph3.2 kmh 30.19 in1022.4 mb 0.00 in0.0 mm 0.00 in0.0 mm 0.00 in0.0 mm
07:51 PM 47.1°F8.4°C 41.9°F5.5°C 82% Calm Calm 0.9 mph1.4 kmh 30.20 in1022.7 mb 0.00 in0.0 mm 0.00 in0.0 mm 0.00 in0.0 mm
08:01 PM 46.8°F8.2°C 41.9°F5.5°C 83% Calm Calm -- 30.20 in1022.7 mb 0.00 in0.0 mm 0.00 in0.0 mm 0.00 in0.0 mm
08:11 PM 46.8°F8.2°C 41.9°F5.5°C 83% Calm Calm -- 30.20 in1022.7 mb 0.00 in0.0 mm 0.00 in0.0 mm 0.00 in0.0 mm
08:21 PM 46.6°F8.1°C 41.7°F5.4°C 83% Calm Calm -- 30.20 in1022.7 mb 0.00 in0.0 mm 0.00 in0.0 mm 0.00 in0.0 mm
08:31 PM 46.2°F7.9°C 41.7°F5.4°C 84% Calm Calm -- 30.21 in1023.0 mb 0.00 in0.0 mm 0.00 in0.0 mm 0.00 in0.0 mm
08:42 PM 46.0°F7.8°C 41.5°F5.3°C 84% Calm Calm 1.0 mph1.6 kmh 30.21 in1023.0 mb 0.00 in0.0 mm 0.00 in0.0 mm 0.00 in0.0 mm
08:52 PM 45.5°F7.5°C 41.0°F5.0°C 84% Calm Calm 0.9 mph1.4 kmh 30.21 in1023.0 mb 0.00 in0.0 mm 0.00 in0.0 mm 0.00 in0.0 mm
09:02 PM 45.1°F7.3°C 40.6°F4.8°C 84% Calm Calm 2.0 mph3.2 kmh 30.21 in1023.0 mb 0.00 in0.0 mm 0.00 in0.0 mm 0.00 in0.0 mm
09:12 PM 45.0°F7.2°C 40.6°F4.8°C 85% 0.9 mph ENE1.4 kmh ENE 2.0 mph3.2 kmh 30.22 in1023.4 mb 0.00 in0.0 mm 0.00 in0.0 mm 0.00 in0.0 mm
09:22 PM 44.8°F7.1°C 40.5°F4.7°C 85% 0.9 mph E1.4 kmh E 2.0 mph3.2 kmh 30.22 in1023.4 mb 0.00 in0.0 mm 0.00 in0.0 mm 0.00 in0.0 mm
09:32 PM 44.8°F7.1°C 40.8°F4.9°C 86% 0.9 mph ENE1.4 kmh ENE 2.0 mph3.2 kmh 30.22 in1023.4 mb 0.00 in0.0 mm 0.00 in0.0 mm 0.00 in0.0 mm
09:42 PM 44.4°F6.9°C 40.5°F4.7°C 86% 0.9 mph E1.4 kmh E 2.0 mph3.2 kmh 30.22 in1023.4 mb 0.00 in0.0 mm 0.00 in0.0 mm 0.00 in0.0 mm
09:52 PM 44.1°F6.7°C 40.1°F4.5°C 86% Calm Calm 0.9 mph1.4 kmh 30.22 in1023.4 mb 0.00 in0.0 mm 0.00 in0.0 mm 0.00 in0.0 mm
10:02 PM 43.7°F6.5°C 40.1°F4.5°C 87% Calm Calm 0.9 mph1.4 kmh 30.22 in1023.4 mb 0.00 in0.0 mm 0.00 in0.0 mm 0.00 in0.0 mm
10:12 PM 43.5°F6.4°C 39.9°F4.4°C 87% 0.9 mph E1.4 kmh E 2.0 mph3.2 kmh 30.22 in1023.4 mb 0.00 in0.0 mm 0.00 in0.0 mm 0.00 in0.0 mm
10:22 PM 43.2°F6.2°C 39.9°F4.4°C 88% 0.9 mph E1.4 kmh E 2.0 mph3.2 kmh 30.22 in1023.4 mb 0.00 in0.0 mm 0.00 in0.0 mm 0.00 in0.0 mm
10:32 PM 43.0°F6.1°C 39.7°F4.3°C 88% Calm Calm 0.9 mph1.4 kmh 30.22 in1023.4 mb 0.00 in0.0 mm 0.00 in0.0 mm 0.00 in0.0 mm
10:42 PM 43.3°F6.3°C 40.1°F4.5°C 88% 0.9 mph NE1.4 kmh NE 2.9 mph4.7 kmh 30.22 in1023.4 mb 0.00 in0.0 mm 0.00 in0.0 mm 0.00 in0.0 mm
10:52 PM 43.2°F6.2°C 39.9°F4.4°C 88% 0.9 mph ENE1.4 kmh ENE 4.0 mph6.4 kmh 30.21 in1023.0 mb 0.00 in0.0 mm 0.00 in0.0 mm 0.00 in0.0 mm
11:02 PM 43.0°F6.1°C 39.7°F4.3°C 88% 0.9 mph E1.4 kmh E 2.9 mph4.7 kmh 30.21 in1023.0 mb 0.00 in0.0 mm 0.00 in0.0 mm 0.00 in0.0 mm
11:12 PM 42.8°F6.0°C 39.7°F4.3°C 89% Calm Calm 0.9 mph1.4 kmh 30.21 in1023.0 mb 0.00 in0.0 mm 0.00 in0.0 mm 0.00 in0.0 mm
11:22 PM 43.0°F6.1°C 39.9°F4.4°C 89% 2.0 mph ENE3.2 kmh ENE 4.0 mph6.4 kmh 30.21 in1023.0 mb 0.00 in0.0 mm 0.00 in0.0 mm 0.00 in0.0 mm
11:32 PM 42.6°F5.9°C 39.6°F4.2°C 89% 2.0 mph NE3.2 kmh NE 5.0 mph8.0 kmh 30.21 in1023.0 mb 0.00 in0.0 mm 0.00 in0.0 mm 0.00 in0.0 mm
11:42 PM 42.6°F5.9°C 39.6°F4.2°C 89% 2.0 mph NE3.2 kmh NE 5.0 mph8.0 kmh 30.21 in1023.0 mb 0.00 in0.0 mm 0.00 in0.0 mm 0.00 in0.0 mm
11:52 PM 42.6°F5.9°C 39.9°F4.4°C 90% 2.0 mph NE3.2 kmh NE 5.0 mph8.0 kmh 30.21 in1023.0 mb 0.00 in0.0 mm 0.00 in0.0 mm 0.00 in0.0 mm